Time;durP1;ratioP1;P1;durP2;ratioP2;P2;SDS_P1;SDS_P2;PMS_P1;PMS_P2;Temp;Humidity;BMP_temperature;BMP_pressure;BME280_temperature;BME280_humidity;BME280_pressure;Samples;Min_cycle;Max_cycle;Signal;HPM_P1;HPM_P2
2021/11/28 00:00:49;;;;;;;9.97;5.00;;;3.30;89.60;;;;;;4997486;28;20508;-76
2021/11/28 00:03:19;;;;;;;8.57;4.17;;;3.30;89.60;;;;;;4991831;28;20464;-76
2021/11/28 00:06:09;;;;;;;14.10;5.70;;;3.30;89.70;;;;;;4993688;28;20431;-76
2021/11/28 00:09:00;;;;;;;8.77;4.90;;;3.30;89.80;;;;;;5002406;28;20955;-76
2021/11/28 00:11:31;;;;;;;8.47;4.80;;;3.30;89.90;;;;;;4997658;28;20451;-74
2021/11/28 00:14:12;;;;;;;11.53;5.40;;;3.30;89.90;;;;;;5006437;28;20500;-75
2021/11/28 00:16:38;;;;;;;10.50;4.63;;;3.30;90.00;;;;;;5013003;28;20951;-75
2021/11/28 00:19:05;;;;;;;11.57;4.20;;;3.30;90.00;;;;;;4997830;28;20410;-75
2021/11/28 00:21:32;;;;;;;7.60;4.07;;;3.40;90.40;;;;;;4998149;28;20462;-76
2021/11/28 00:23:58;;;;;;;6.90;4.20;;;3.30;90.00;;;;;;4997825;28;20422;-74
2021/11/28 00:26:23;;;;;;;7.53;4.63;;;3.40;90.10;;;;;;5013694;28;20453;-74
2021/11/28 00:28:50;;;;;;;10.43;5.70;;;3.30;90.00;;;;;;4999104;28;20187;-75
2021/11/28 00:31:16;;;;;;;11.43;5.40;;;3.30;90.00;;;;;;5011366;28;20242;-73
2021/11/28 00:33:41;;;;;;;8.20;4.97;;;3.30;90.00;;;;;;5018420;28;20446;-72
2021/11/28 00:36:08;;;;;;;12.07;5.60;;;3.30;90.00;;;;;;5033617;28;20211;-71
2021/11/28 00:38:34;;;;;;;7.60;3.73;;;3.30;90.10;;;;;;5018495;28;20517;-72
2021/11/28 00:41:00;;;;;;;7.33;3.90;;;3.30;90.00;;;;;;5033472;28;20464;-71
2021/11/28 00:43:25;;;;;;;8.40;4.63;;;3.30;89.90;;;;;;5037039;28;20222;-72
2021/11/28 00:45:51;;;;;;;9.87;4.93;;;3.20;90.00;;;;;;5038779;28;20452;-74
2021/11/28 00:48:17;;;;;;;11.40;4.03;;;3.20;90.00;;;;;;5032483;28;20505;-74
2021/11/28 00:50:46;;;;;;;6.63;4.10;;;3.20;90.10;;;;;;5015300;28;20190;-75
2021/11/28 00:53:15;;;;;;;10.97;4.80;;;3.30;90.10;;;;;;5015887;28;20221;-75
2021/11/28 00:55:41;;;;;;;10.23;5.13;;;3.30;90.10;;;;;;4997782;28;20478;-74
2021/11/28 00:58:07;;;;;;;11.17;4.60;;;3.30;90.10;;;;;;4997246;28;20395;-78
2021/11/28 01:00:37;;;;;;;14.60;5.73;;;3.30;90.10;;;;;;4999000;28;20554;-74
2021/11/28 01:03:04;;;;;;;9.27;4.90;;;3.30;90.20;;;;;;5007830;28;20425;-74
2021/11/28 01:05:29;;;;;;;7.70;5.67;;;3.30;90.60;;;;;;5007303;28;20429;-76
2021/11/28 01:07:55;;;;;;;7.03;4.67;;;3.40;90.20;;;;;;5005415;28;21152;-74
2021/11/28 01:10:21;;;;;;;18.03;4.97;;;3.40;90.10;;;;;;4996874;28;20176;-74
2021/11/28 01:12:46;;;;;;;17.80;5.40;;;3.40;90.00;;;;;;5006294;28;20234;-73
2021/11/28 01:15:13;;;;;;;5.77;4.30;;;3.40;90.10;;;;;;4995867;28;20191;-73
2021/11/28 01:17:39;;;;;;;10.07;6.63;;;3.50;90.10;;;;;;5003101;28;20504;-74
2021/11/28 01:20:08;;;;;;;11.97;4.80;;;3.50;90.00;;;;;;5012962;28;20536;-75
2021/11/28 01:22:34;;;;;;;18.23;5.27;;;3.50;90.10;;;;;;4995794;28;20469;-74
2021/11/28 01:25:00;;;;;;;10.63;4.80;;;3.50;90.10;;;;;;4993879;28;20808;-72
2021/11/28 01:27:26;;;;;;;13.57;4.83;;;3.50;90.10;;;;;;4993194;28;20215;-74
2021/11/28 01:29:51;;;;;;;12.17;6.17;;;3.50;90.00;;;;;;4995434;28;20630;-74
2021/11/28 01:32:17;;;;;;;8.43;5.13;;;3.50;90.10;;;;;;4993997;28;20266;-74
2021/11/28 01:34:43;;;;;;;11.90;5.20;;;3.50;90.10;;;;;;5010525;28;20583;-75
2021/11/28 01:37:10;;;;;;;11.97;5.37;;;3.50;90.10;;;;;;5002263;28;20550;-75
2021/11/28 01:39:36;;;;;;;8.30;4.23;;;3.50;90.60;;;;;;5002403;28;20240;-75
2021/11/28 01:42:04;;;;;;;8.87;4.70;;;3.60;90.20;;;;;;5005122;28;20469;-74
2021/11/28 01:44:30;;;;;;;9.17;4.80;;;3.60;90.10;;;;;;5023983;28;20414;-75
2021/11/28 01:46:55;;;;;;;7.23;4.27;;;3.60;90.10;;;;;;5021335;28;20481;-74
2021/11/28 01:49:22;;;;;;;7.40;3.70;;;3.70;90.10;;;;;;5005915;28;20422;-75
2021/11/28 01:51:50;;;;;;;6.00;4.00;;;3.70;90.00;;;;;;4997079;28;20427;-75
2021/11/28 01:54:17;;;;;;;12.30;4.90;;;3.60;89.40;;;;;;4994389;28;20423;-75
2021/11/28 01:56:47;;;;;;;8.00;4.50;;;3.60;89.70;;;;;;4996450;28;21032;-75
2021/11/28 01:59:14;;;;;;;12.77;4.03;;;3.60;89.80;;;;;;4994449;28;20410;-74
2021/11/28 02:01:46;;;;;;;8.53;4.10;;;3.50;89.80;;;;;;4992289;28;20462;-75
2021/11/28 02:04:15;;;;;;;7.37;4.10;;;3.50;89.80;;;;;;4994190;28;20497;-75
2021/11/28 02:06:42;;;;;;;9.60;4.07;;;3.50;90.00;;;;;;4992703;28;20435;-75
2021/11/28 02:09:08;;;;;;;5.73;3.67;;;3.40;89.90;;;;;;4996826;28;20427;-75
2021/11/28 02:11:35;;;;;;;5.77;3.70;;;3.40;90.00;;;;;;5011291;28;20472;-76
2021/11/28 02:14:00;;;;;;;5.70;3.43;;;3.40;90.10;;;;;;5001220;28;20414;-75
2021/11/28 02:16:27;;;;;;;5.43;3.13;;;3.50;90.20;;;;;;5004580;28;20191;-75
2021/11/28 02:18:53;;;;;;;6.90;3.23;;;3.50;90.30;;;;;;5004001;28;21163;-75
2021/11/28 02:21:19;;;;;;;6.70;4.73;;;3.40;90.10;;;;;;5013840;28;20249;-74
2021/11/28 02:23:45;;;;;;;7.23;3.53;;;3.40;90.20;;;;;;5008392;28;20221;-74
2021/11/28 02:26:16;;;;;;;6.63;3.77;;;3.40;90.20;;;;;;5023645;28;20469;-74
2021/11/28 02:28:46;;;;;;;10.27;4.80;;;3.40;90.30;;;;;;5028508;28;20217;-74
2021/11/28 02:31:12;;;;;;;8.77;3.53;;;3.40;90.30;;;;;;4994581;28;20489;-76
2021/11/28 02:33:39;;;;;;;5.67;3.77;;;3.30;90.30;;;;;;5007201;28;20484;-76
2021/11/28 02:36:06;;;;;;;4.90;3.60;;;3.30;90.30;;;;;;5017615;28;20470;-74
2021/11/28 02:38:34;;;;;;;5.60;3.67;;;3.30;90.40;;;;;;5010467;28;20175;-75
2021/11/28 02:41:03;;;;;;;6.97;3.70;;;3.30;90.40;;;;;;4997774;28;20451;-74
2021/11/28 02:43:31;;;;;;;8.30;4.13;;;3.30;90.40;;;;;;4995147;28;20853;-74
2021/11/28 02:46:03;;;;;;;8.20;3.50;;;3.30;90.50;;;;;;4995964;28;20434;-74
2021/11/28 02:48:30;;;;;;;7.23;3.60;;;3.30;90.50;;;;;;5013224;28;20410;-74
2021/11/28 02:50:59;;;;;;;5.70;3.70;;;3.40;90.60;;;;;;5004410;28;20477;-74
2021/11/28 02:53:25;;;;;;;7.57;3.67;;;3.40;90.70;;;;;;5009574;28;20423;-74
2021/11/28 02:55:55;;;;;;;5.40;3.30;;;3.50;90.60;;;;;;5006628;28;20497;-75
2021/11/28 02:58:24;;;;;;;5.23;3.60;;;3.50;90.60;;;;;;5007394;28;20518;-75
2021/11/28 03:01:13;;;;;;;7.40;3.53;;;3.50;90.50;;;;;;5012228;28;20844;-75
2021/11/28 03:03:52;;;;;;;6.07;3.17;;;3.50;90.50;;;;;;5012369;28;20435;-76
2021/11/28 03:06:19;;;;;;;9.13;3.40;;;3.50;90.50;;;;;;5011835;28;20433;-76
2021/11/28 03:08:44;;;;;;;5.60;3.23;;;3.60;90.50;;;;;;5011938;28;20409;-76
2021/11/28 03:11:13;;;;;;;6.07;3.87;;;3.60;90.40;;;;;;5011877;28;20445;-76
2021/11/28 03:13:46;;;;;;;6.00;3.33;;;3.60;90.40;;;;;;5012496;28;20174;-77
2021/11/28 03:16:19;;;;;;;5.80;3.57;;;3.60;90.50;;;;;;5013136;28;20525;-75
2021/11/28 03:18:46;;;;;;;7.50;3.87;;;3.60;90.40;;;;;;5013178;28;20593;-75
2021/11/28 03:21:24;;;;;;;6.00;2.93;;;3.60;90.30;;;;;;5021128;28;20454;-75
2021/11/28 03:23:52;;;;;;;4.93;3.27;;;3.60;90.40;;;;;;5020925;28;20429;-74
2021/11/28 03:26:31;;;;;;;7.73;3.37;;;3.60;90.40;;;;;;5021320;28;20505;-76
2021/11/28 03:29:04;;;;;;;5.30;3.67;;;3.50;90.50;;;;;;5011458;28;20437;-76
2021/11/28 03:32:02;;;;;;;5.00;3.30;;;3.50;90.60;;;;;;5004762;28;20417;-76
2021/11/28 03:34:34;;;;;;;5.23;3.20;;;3.50;90.70;;;;;;5012338;28;20422;-76
2021/11/28 03:37:03;;;;;;;4.10;3.43;;;3.60;90.70;;;;;;5011612;28;20600;-76
2021/11/28 03:39:29;;;;;;;6.60;3.80;;;3.60;90.70;;;;;;5011243;28;20943;-76
2021/11/28 03:42:01;;;;;;;7.20;3.30;;;3.60;90.70;;;;;;5010931;28;20668;-75
2021/11/28 03:44:29;;;;;;;4.80;3.27;;;3.60;90.60;;;;;;5012019;28;20780;-75
2021/11/28 03:47:07;;;;;;;8.10;3.73;;;3.60;90.60;;;;;;5011207;28;20440;-74
2021/11/28 03:49:34;;;;;;;10.73;4.33;;;3.60;90.70;;;;;;5011533;28;20418;-75
2021/11/28 03:52:03;;;;;;;6.13;3.90;;;3.60;90.80;;;;;;5012273;28;20416;-75
2021/11/28 03:54:29;;;;;;;6.17;3.33;;;3.60;90.80;;;;;;4996188;28;20425;-76
2021/11/28 03:56:55;;;;;;;5.53;3.20;;;3.60;90.70;;;;;;5012426;28;20437;-75
2021/11/28 03:59:23;;;;;;;5.33;3.47;;;3.60;90.70;;;;;;5012225;28;20406;-76
2021/11/28 04:01:53;;;;;;;4.73;3.43;;;3.60;90.70;;;;;;5011224;28;20962;-76
2021/11/28 04:04:20;;;;;;;8.50;4.53;;;3.60;90.80;;;;;;5012021;28;20990;-76
2021/11/28 04:07:06;;;;;;;11.40;4.43;;;3.60;90.90;;;;;;5015672;28;20974;-75
2021/11/28 04:09:33;;;;;;;4.57;3.53;;;3.60;90.90;;;;;;5013451;28;20495;-75
2021/11/28 04:12:03;;;;;;;7.60;3.90;;;3.60;90.90;;;;;;5011720;28;20509;-75
2021/11/28 04:14:29;;;;;;;8.67;3.60;;;3.60;91.00;;;;;;5017339;28;20889;-76
2021/11/28 04:16:55;;;;;;;6.60;3.70;;;3.60;91.00;;;;;;5011470;28;20760;-76
2021/11/28 04:19:23;;;;;;;7.20;3.77;;;3.60;90.90;;;;;;5011875;28;20959;-76
2021/11/28 04:21:49;;;;;;;6.20;3.43;;;3.60;90.90;;;;;;5010569;28;20511;-76
2021/11/28 04:24:16;;;;;;;8.23;4.20;;;3.60;90.80;;;;;;5010511;28;20497;-77
2021/11/28 04:26:42;;;;;;;5.20;3.43;;;3.60;90.80;;;;;;5009904;28;20439;-75
2021/11/28 04:29:09;;;;;;;5.70;3.57;;;3.50;90.90;;;;;;5010072;28;20414;-75
2021/11/28 04:31:37;;;;;;;3.37;2.87;;;3.50;91.00;;;;;;5010990;28;20457;-76
2021/11/28 04:34:04;;;;;;;6.43;3.03;;;3.50;91.00;;;;;;5009909;28;20422;-76
2021/11/28 04:36:31;;;;;;;5.20;2.73;;;3.50;91.00;;;;;;5007301;28;20751;-75
2021/11/28 04:38:57;;;;;;;4.80;2.93;;;3.50;91.00;;;;;;5008829;28;20167;-75
2021/11/28 04:41:23;;;;;;;8.90;3.53;;;3.50;91.00;;;;;;5010015;28;20512;-76
2021/11/28 04:43:55;;;;;;;6.03;3.13;;;3.50;91.10;;;;;;5009741;28;20178;-76
2021/11/28 04:46:21;;;;;;;7.37;3.80;;;3.50;91.10;;;;;;5009785;28;20524;-76
2021/11/28 04:48:48;;;;;;;4.80;3.80;;;3.50;91.20;;;;;;5010334;28;20481;-76
2021/11/28 04:51:34;;;;;;;4.00;3.50;;;3.60;91.20;;;;;;5010905;28;20418;-75
2021/11/28 04:54:00;;;;;;;4.23;3.07;;;3.60;91.20;;;;;;5010792;28;20421;-75
2021/11/28 04:56:27;;;;;;;6.97;3.20;;;3.60;91.10;;;;;;5014410;28;20425;-76
2021/11/28 04:58:54;;;;;;;5.57;3.40;;;3.60;91.10;;;;;;5015090;28;20413;-76
2021/11/28 05:01:24;;;;;;;8.10;3.57;;;3.60;91.10;;;;;;5014993;28;20879;-76
2021/11/28 05:03:54;;;;;;;6.33;3.10;;;3.60;91.40;;;;;;5013830;28;20410;-75
2021/11/28 05:06:39;;;;;;;5.60;3.53;;;3.60;91.10;;;;;;5015255;28;20422;-76
2021/11/28 05:09:20;;;;;;;6.47;3.20;;;3.70;91.20;;;;;;5013951;28;20495;-76
2021/11/28 05:11:47;;;;;;;8.13;4.30;;;3.70;91.20;;;;;;5013045;28;20418;-75
2021/11/28 05:14:13;;;;;;;8.40;3.93;;;3.70;91.10;;;;;;5013570;28;20974;-75
2021/11/28 05:16:40;;;;;;;4.20;3.63;;;3.70;91.10;;;;;;5013033;28;20465;-75
2021/11/28 05:19:21;;;;;;;9.60;4.17;;;3.70;91.00;;;;;;5013481;28;20453;-75
2021/11/28 05:22:01;;;;;;;6.90;3.80;;;3.80;91.00;;;;;;5014362;28;20511;-75
2021/11/28 05:24:28;;;;;;;6.50;3.57;;;3.80;91.00;;;;;;5013016;28;20681;-75
2021/11/28 05:26:54;;;;;;;5.53;3.90;;;3.80;90.90;;;;;;5013391;28;20418;-76
2021/11/28 05:29:21;;;;;;;7.40;4.20;;;3.80;90.90;;;;;;5013383;28;20648;-75
2021/11/28 05:31:47;;;;;;;7.90;3.57;;;3.80;90.90;;;;;;5013390;28;20416;-75
2021/11/28 05:34:39;;;;;;;5.00;3.23;;;3.80;90.80;;;;;;5005759;28;20180;-76
2021/11/28 05:37:15;;;;;;;4.07;3.47;;;3.80;90.80;;;;;;5014204;28;20421;-76
2021/11/28 05:39:42;;;;;;;13.27;7.17;;;3.90;90.80;;;;;;5012271;28;20472;-76
2021/11/28 05:42:08;;;;;;;17.43;9.30;;;3.90;90.80;;;;;;5013336;28;21033;-76
2021/11/28 05:44:35;;;;;;;7.27;5.63;;;3.90;90.80;;;;;;5012477;28;20410;-75
2021/11/28 05:47:19;;;;;;;7.43;3.60;;;3.90;90.80;;;;;;5014008;28;20425;-77
2021/11/28 05:50:05;;;;;;;9.40;3.97;;;3.90;90.60;;;;;;5012555;28;20552;-75
2021/11/28 05:52:37;;;;;;;9.77;5.50;;;3.90;90.60;;;;;;5012985;28;20840;-76
2021/11/28 05:55:04;;;;;;;7.07;3.97;;;3.90;90.70;;;;;;5012745;28;20402;-76
2021/11/28 05:57:32;;;;;;;5.30;4.23;;;3.90;90.80;;;;;;5012191;28;20524;-76
2021/11/28 05:59:59;;;;;;;4.77;3.57;;;3.80;90.70;;;;;;5012207;28;20895;-75
2021/11/28 06:02:25;;;;;;;5.80;4.03;;;3.90;90.80;;;;;;5012154;28;20198;-75
2021/11/28 06:05:06;;;;;;;8.20;3.93;;;3.90;90.80;;;;;;5012298;28;20768;-76
2021/11/28 06:07:52;;;;;;;10.20;4.20;;;3.90;90.80;;;;;;5012072;28;20794;-75
2021/11/28 06:10:18;;;;;;;7.57;4.13;;;3.90;90.80;;;;;;5012664;28;20470;-76
2021/11/28 06:12:46;;;;;;;7.97;4.30;;;3.90;90.90;;;;;;5012338;28;20783;-76
2021/11/28 06:15:11;;;;;;;6.30;3.57;;;3.90;90.80;;;;;;5012636;28;20418;-74
2021/11/28 06:18:00;;;;;;;6.83;3.83;;;3.90;90.80;;;;;;5003347;28;20414;-76
2021/11/28 06:20:44;;;;;;;7.93;4.00;;;3.80;90.80;;;;;;5013531;28;20928;-76
2021/11/28 06:23:15;;;;;;;5.07;3.70;;;3.80;90.90;;;;;;4996407;28;20415;-76
2021/11/28 06:25:41;;;;;;;7.40;4.20;;;3.80;91.00;;;;;;5011945;28;20574;-76
2021/11/28 06:28:07;;;;;;;7.37;4.23;;;3.80;91.00;;;;;;5013248;28;20433;-75
2021/11/28 06:30:35;;;;;;;8.77;4.70;;;3.80;91.00;;;;;;5017490;28;20410;-74
2021/11/28 06:33:14;;;;;;;11.40;3.80;;;3.80;91.00;;;;;;5022806;28;20430;-74
2021/11/28 06:35:58;;;;;;;6.07;4.60;;;3.80;91.00;;;;;;5025373;28;20534;-75
2021/11/28 06:38:34;;;;;;;6.80;4.07;;;3.80;91.10;;;;;;5019372;28;20445;-76
2021/11/28 06:41:20;;;;;;;7.87;5.43;;;3.80;91.20;;;;;;5013512;28;20469;-76
2021/11/28 06:43:48;;;;;;;7.87;4.00;;;3.80;91.20;;;;;;5011460;28;20431;-75
2021/11/28 06:46:14;;;;;;;7.83;4.30;;;3.80;91.20;;;;;;5011898;28;20426;-75
2021/11/28 06:48:40;;;;;;;7.17;4.00;;;3.90;91.30;;;;;;5011543;28;20421;-77
2021/11/28 06:51:29;;;;;;;6.17;4.20;;;3.90;91.20;;;;;;4998636;28;20946;-76
2021/11/28 06:53:58;;;;;;;7.33;3.90;;;3.90;91.20;;;;;;5013974;28;20426;-76
2021/11/28 06:56:30;;;;;;;11.80;4.23;;;3.90;91.20;;;;;;5023869;28;20529;-74
2021/11/28 06:59:01;;;;;;;5.93;3.83;;;3.90;91.20;;;;;;5022177;28;20446;-74
2021/11/28 07:01:27;;;;;;;7.47;4.80;;;3.90;91.20;;;;;;5005629;28;20465;-74
2021/11/28 07:04:26;;;;;;;5.23;3.57;;;4.00;91.20;;;;;;5000197;28;20219;-74
2021/11/28 07:07:18;;;;;;;11.67;4.47;;;4.00;91.20;;;;;;5010961;28;20473;-74
2021/11/28 07:09:53;;;;;;;6.30;4.33;;;4.00;91.10;;;;;;5011065;28;20425;-75
2021/11/28 07:12:21;;;;;;;6.80;4.20;;;3.90;90.90;;;;;;5011620;28;20402;-76
2021/11/28 07:14:47;;;;;;;9.60;4.70;;;3.90;91.10;;;;;;5010938;28;20858;-75
2021/11/28 07:17:19;;;;;;;10.93;4.13;;;3.90;91.20;;;;;;5010852;28;20457;-76
2021/11/28 07:19:45;;;;;;;7.47;4.37;;;3.90;91.20;;;;;;5010925;28;20844;-76
2021/11/28 07:22:33;;;;;;;6.63;4.70;;;4.00;91.30;;;;;;5012539;28;20218;-75
2021/11/28 07:24:59;;;;;;;5.70;4.33;;;4.00;91.20;;;;;;5011043;28;20428;-74
2021/11/28 07:27:28;;;;;;;6.70;4.50;;;4.00;91.20;;;;;;5010566;28;20808;-76
2021/11/28 07:29:55;;;;;;;6.30;4.30;;;4.10;91.20;;;;;;5010652;28;20410;-76
2021/11/28 07:32:21;;;;;;;9.27;5.03;;;4.10;91.20;;;;;;4994159;28;20262;-77
2021/11/28 07:35:07;;;;;;;12.70;4.80;;;4.10;91.10;;;;;;5012048;28;20414;-75
2021/11/28 07:37:52;;;;;;;7.37;4.80;;;4.20;91.10;;;;;;5012472;28;20410;-75
2021/11/28 07:40:17;;;;;;;16.90;4.70;;;4.20;90.90;;;;;;5010997;28;20923;-76
2021/11/28 07:42:55;;;;;;;6.57;3.70;;;4.20;90.90;;;;;;5011167;28;20171;-75
2021/11/28 07:45:40;;;;;;;10.57;5.30;;;4.20;90.90;;;;;;5012292;28;21043;-76
2021/11/28 07:48:31;;;;;;;8.03;5.60;;;4.30;90.90;;;;;;5012310;28;20414;-77
2021/11/28 07:51:10;;;;;;;9.63;5.83;;;4.30;90.80;;;;;;5010357;28;20957;-74
2021/11/28 07:53:38;;;;;;;12.77;7.03;;;4.30;90.80;;;;;;5010133;28;20413;-75
2021/11/28 07:56:05;;;;;;;8.47;5.50;;;4.30;90.80;;;;;;5010420;28;20498;-74
2021/11/28 07:58:49;;;;;;;10.00;4.90;;;4.30;90.80;;;;;;5011720;28;20464;-76
2021/11/28 08:01:22;;;;;;;8.20;5.60;;;4.40;90.90;;;;;;5011101;28;20462;-74
2021/11/28 08:03:54;;;;;;;10.83;6.13;;;4.40;90.80;;;;;;4996176;28;20414;-75
2021/11/28 08:06:38;;;;;;;8.47;5.70;;;4.40;90.80;;;;;;5015140;28;20441;-75
2021/11/28 08:09:33;;;;;;;4.83;4.07;;;4.40;90.80;;;;;;5025004;28;20425;-76
2021/11/28 08:12:10;;;;;;;6.00;4.10;;;4.40;90.70;;;;;;5023892;28;20456;-75
2021/11/28 08:14:38;;;;;;;9.27;4.73;;;4.50;90.60;;;;;;5019698;28;20780;-76
2021/11/28 08:17:03;;;;;;;7.60;4.00;;;4.50;90.60;;;;;;5010538;28;20441;-73
2021/11/28 08:19:29;;;;;;;8.30;5.23;;;4.50;90.40;;;;;;5011618;28;20752;-77
2021/11/28 08:21:55;;;;;;;7.30;5.13;;;4.40;90.40;;;;;;5010590;28;20309;-75
2021/11/28 08:24:22;;;;;;;7.43;4.30;;;4.50;90.50;;;;;;5010700;28;20713;-75
2021/11/28 08:26:47;;;;;;;8.40;4.30;;;4.50;90.50;;;;;;5011828;28;20464;-75
2021/11/28 08:29:13;;;;;;;6.87;4.50;;;4.60;90.50;;;;;;5011800;28;20171;-74
2021/11/28 08:31:42;;;;;;;8.37;4.73;;;4.60;90.40;;;;;;5013959;28;20581;-75
2021/11/28 08:34:40;;;;;;;13.23;5.53;;;4.60;90.30;;;;;;5000311;28;20430;-75
2021/11/28 08:37:12;;;;;;;12.47;4.77;;;4.70;90.30;;;;;;5000827;28;20587;-74
2021/11/28 08:39:38;;;;;;;8.87;5.00;;;4.70;90.20;;;;;;4996711;28;20515;-75
2021/11/28 08:42:07;;;;;;;7.70;4.63;;;4.70;90.20;;;;;;5009387;28;20476;-75
2021/11/28 08:44:33;;;;;;;8.50;4.60;;;4.70;90.10;;;;;;5004656;28;20972;-73
2021/11/28 08:46:59;;;;;;;8.43;4.63;;;4.70;90.00;;;;;;4997430;28;20471;-73
2021/11/28 08:49:26;;;;;;;8.63;4.90;;;4.80;89.80;;;;;;4994993;28;20841;-75
2021/11/28 08:51:52;;;;;;;9.00;5.13;;;4.80;89.50;;;;;;4995912;28;20451;-76
2021/11/28 08:54:18;;;;;;;5.60;4.43;;;4.80;89.20;;;;;;5001802;28;20423;-76
2021/11/28 08:56:44;;;;;;;9.03;5.00;;;4.80;89.50;;;;;;5010156;28;20191;-74
2021/11/28 08:59:11;;;;;;;6.70;3.80;;;4.90;89.50;;;;;;5000410;28;20191;-75
2021/11/28 09:01:37;;;;;;;8.70;4.50;;;4.90;88.90;;;;;;5014882;28;20500;-76
2021/11/28 09:04:06;;;;;;;8.07;5.10;;;5.00;89.00;;;;;;5016694;28;20410;-70
2021/11/28 09:06:32;;;;;;;11.77;5.73;;;5.10;88.50;;;;;;5015127;28;20438;-71
2021/11/28 09:08:58;;;;;;;7.97;5.47;;;5.10;87.90;;;;;;5013353;28;20888;-71
2021/11/28 09:11:24;;;;;;;8.60;3.90;;;5.20;87.50;;;;;;4997579;28;20395;-72
2021/11/28 09:13:50;;;;;;;16.47;7.77;;;5.20;87.70;;;;;;5011889;28;20812;-70
2021/11/28 09:16:16;;;;;;;9.33;5.73;;;5.20;86.80;;;;;;5015200;28;20525;-71
2021/11/28 09:18:49;;;;;;;23.30;12.50;;;5.30;86.10;;;;;;5014971;28;20187;-71
2021/11/28 09:21:16;;;;;;;15.13;6.80;;;5.30;86.70;;;;;;5015537;28;20202;-71
2021/11/28 09:26:29;;;;;;;12.50;7.00;;;5.30;86.20;;;;;;5001772;28;20873;-70
2021/11/28 09:28:54;;;;;;;10.70;6.90;;;5.30;86.50;;;;;;4996247;28;20447;-71
2021/11/28 09:31:20;;;;;;;13.83;5.93;;;5.30;86.20;;;;;;4995721;28;20774;-71
2021/11/28 09:33:46;;;;;;;9.30;5.30;;;5.30;85.90;;;;;;5011018;28;20222;-71
2021/11/28 09:36:13;;;;;;;9.70;5.50;;;5.40;86.00;;;;;;5011104;28;20446;-70
2021/11/28 09:38:38;;;;;;;13.27;6.53;;;5.40;85.60;;;;;;4994181;28;20414;-69
2021/11/28 09:41:10;;;;;;;19.20;8.50;;;5.40;85.80;;;;;;4993298;28;20457;-70
2021/11/28 09:43:41;;;;;;;12.93;5.10;;;5.40;85.70;;;;;;4997385;28;20175;-71
2021/11/28 09:46:09;;;;;;;6.33;4.67;;;5.40;84.90;;;;;;4996249;28;20465;-72
2021/11/28 09:48:35;;;;;;;7.37;5.30;;;5.40;85.40;;;;;;4996726;28;20439;-71
2021/11/28 09:51:07;;;;;;;7.47;4.93;;;5.40;86.00;;;;;;4995633;28;20423;-71
2021/11/28 09:53:34;;;;;;;8.03;5.33;;;5.30;83.90;;;;;;5019034;28;20578;-69
2021/11/28 09:56:01;;;;;;;10.33;5.27;;;5.20;84.70;;;;;;5003437;28;20795;-71
2021/11/28 09:58:28;;;;;;;9.30;5.00;;;5.10;85.20;;;;;;5006542;28;20454;-70
2021/11/28 10:00:59;;;;;;;11.10;5.33;;;5.10;85.80;;;;;;4998845;28;20801;-71
2021/11/28 10:03:26;;;;;;;12.43;5.70;;;5.10;85.80;;;;;;4995323;28;20837;-71
2021/11/28 10:05:53;;;;;;;12.50;8.57;;;5.10;86.20;;;;;;4995619;28;20439;-71
2021/11/28 10:08:23;;;;;;;17.70;8.83;;;5.10;86.60;;;;;;4996190;28;20407;-72
2021/11/28 10:11:07;;;;;;;10.37;7.20;;;5.10;86.50;;;;;;4995292;28;20414;-71
2021/11/28 10:13:33;;;;;;;19.27;9.00;;;5.10;86.80;;;;;;5010769;28;20785;-70
2021/11/28 10:15:59;;;;;;;21.03;9.50;;;5.10;87.00;;;;;;5011497;28;20832;-71
2021/11/28 10:18:25;;;;;;;13.03;8.73;;;5.10;87.10;;;;;;5015457;28;20429;-70
2021/11/28 10:20:53;;;;;;;13.67;7.07;;;5.20;87.10;;;;;;5000570;28;20195;-72
2021/11/28 10:23:19;;;;;;;15.53;8.57;;;5.20;87.20;;;;;;5000512;28;20426;-71
2021/11/28 10:25:45;;;;;;;16.67;9.27;;;5.30;87.30;;;;;;5015304;28;20437;-70
2021/11/28 10:28:12;;;;;;;11.67;6.90;;;5.30;87.30;;;;;;5011584;28;20245;-72
2021/11/28 10:30:43;;;;;;;12.90;6.63;;;5.40;87.10;;;;;;4995435;28;20423;-71
2021/11/28 10:33:13;;;;;;;21.60;9.13;;;5.50;87.00;;;;;;5013218;28;20422;-71
2021/11/28 10:36:02;;;;;;;16.20;8.17;;;5.60;86.80;;;;;;5012053;28;20453;-71
2021/11/28 10:38:40;;;;;;;11.10;6.93;;;5.60;86.20;;;;;;5014812;28;20479;-70
2021/11/28 10:41:27;;;;;;;12.77;9.00;;;5.70;85.60;;;;;;5012593;28;20579;-72
2021/11/28 10:43:53;;;;;;;13.20;8.47;;;5.80;85.50;;;;;;5014077;28;20445;-70
2021/11/28 10:46:33;;;;;;;9.80;7.53;;;5.80;85.00;;;;;;5013733;28;20438;-70
2021/11/28 10:49:08;;;;;;;10.43;6.80;;;5.90;84.70;;;;;;5010223;28;20509;-70
2021/11/28 10:51:37;;;;;;;18.73;8.50;;;6.00;83.90;;;;;;4993508;28;20418;-71
2021/11/28 10:54:30;;;;;;;18.43;10.53;;;6.00;83.70;;;;;;5001497;28;20533;-71
2021/11/28 10:57:10;;;;;;;10.90;8.67;;;6.10;83.20;;;;;;4992421;28;20839;-70
2021/11/28 10:59:41;;;;;;;10.67;7.00;;;6.10;82.90;;;;;;4992759;28;20430;-70
2021/11/28 11:02:27;;;;;;;16.93;7.50;;;6.10;82.60;;;;;;4996109;28;20458;-70
2021/11/28 11:04:56;;;;;;;11.87;6.40;;;6.10;82.70;;;;;;5001740;28;20407;-70
2021/11/28 11:07:23;;;;;;;9.83;6.43;;;6.00;83.20;;;;;;4996555;28;20488;-70
2021/11/28 11:09:51;;;;;;;8.63;7.47;;;6.10;83.20;;;;;;5009442;28;20516;-71
2021/11/28 11:12:35;;;;;;;10.80;7.47;;;6.10;83.10;;;;;;5015394;28;20804;-73
2021/11/28 11:15:01;;;;;;;11.07;7.57;;;6.10;83.10;;;;;;5022667;28;20421;-75
2021/11/28 11:17:31;;;;;;;10.27;7.97;;;6.10;83.40;;;;;;5003783;28;20450;-74
2021/11/28 11:19:59;;;;;;;10.60;7.60;;;6.10;83.20;;;;;;5015368;28;20419;-75
2021/11/28 11:22:26;;;;;;;12.53;7.80;;;6.10;83.40;;;;;;5006448;28;20786;-74
2021/11/28 11:24:58;;;;;;;11.80;7.00;;;6.10;82.70;;;;;;4997086;28;20770;-75
2021/11/28 11:27:33;;;;;;;13.90;7.07;;;6.10;82.70;;;;;;5001598;28;20449;-74
2021/11/28 11:30:02;;;;;;;12.83;7.30;;;6.10;82.70;;;;;;5021815;28;20425;-74
2021/11/28 11:32:49;;;;;;;9.93;6.03;;;6.20;82.80;;;;;;5020820;28;20463;-75
2021/11/28 11:35:26;;;;;;;9.90;6.70;;;6.20;82.50;;;;;;5025478;28;20409;-75
2021/11/28 11:37:57;;;;;;;14.00;6.30;;;6.30;82.20;;;;;;5034005;28;20483;-75
2021/11/28 11:40:25;;;;;;;10.40;6.53;;;6.30;81.90;;;;;;5008440;28;20509;-75
2021/11/28 11:42:54;;;;;;;11.30;6.90;;;6.40;81.60;;;;;;5014793;28;20425;-75
2021/11/28 11:45:26;;;;;;;16.03;7.23;;;6.40;81.40;;;;;;5028274;28;20496;-76
2021/11/28 11:47:53;;;;;;;14.63;6.77;;;6.40;81.20;;;;;;5026369;28;20468;-74
2021/11/28 11:50:22;;;;;;;10.60;8.13;;;6.40;82.00;;;;;;5022736;28;20418;-76
2021/11/28 11:52:50;;;;;;;12.77;6.97;;;6.40;81.60;;;;;;5010677;28;20426;-75
2021/11/28 11:55:22;;;;;;;13.70;7.27;;;6.30;81.20;;;;;;5017863;28;20457;-75
2021/11/28 11:57:48;;;;;;;11.47;7.97;;;6.30;81.70;;;;;;5018230;28;20794;-77
2021/11/28 12:00:33;;;;;;;8.97;6.00;;;6.30;81.90;;;;;;5005568;28;20414;-77
2021/11/28 12:03:12;;;;;;;12.27;6.77;;;6.20;82.00;;;;;;5023571;28;20185;-77
2021/11/28 12:05:40;;;;;;;11.23;7.30;;;6.30;82.40;;;;;;5030778;28;20440;-76
2021/11/28 12:08:15;;;;;;;13.60;7.93;;;6.30;82.40;;;;;;5031454;28;20414;-76
2021/11/28 12:10:47;;;;;;;11.10;6.70;;;6.30;82.70;;;;;;5009581;28;20434;-76
2021/11/28 12:13:24;;;;;;;12.40;8.27;;;6.30;82.60;;;;;;5004886;28;20935;-76
2021/11/28 12:15:51;;;;;;;15.47;9.03;;;6.40;82.90;;;;;;5008295;28;20940;-76
2021/11/28 12:18:35;;;;;;;13.30;8.17;;;6.40;82.50;;;;;;5004268;28;20427;-75
2021/11/28 12:21:02;;;;;;;14.77;8.83;;;6.50;82.30;;;;;;5005939;28;20461;-76
2021/11/28 12:23:44;;;;;;;16.10;9.03;;;6.50;81.80;;;;;;5017972;28;20425;-77
2021/11/28 12:26:25;;;;;;;10.90;8.83;;;6.50;81.50;;;;;;5008742;28;20532;-77
2021/11/28 12:28:52;;;;;;;16.90;9.57;;;6.50;81.50;;;;;;5005283;28;20800;-75
2021/11/28 12:31:30;;;;;;;11.60;8.80;;;6.50;81.70;;;;;;5022105;28;20579;-76
2021/11/28 12:34:06;;;;;;;16.90;10.07;;;6.50;81.30;;;;;;5011721;28;20468;-77
2021/11/28 12:36:36;;;;;;;16.27;9.33;;;6.40;81.70;;;;;;5015083;28;20505;-76
2021/11/28 12:39:13;;;;;;;17.17;9.57;;;6.40;81.60;;;;;;5012900;28;20800;-77
2021/11/28 12:41:48;;;;;;;17.03;9.40;;;6.30;81.80;;;;;;5018828;28;20489;-78
2021/11/28 12:44:28;;;;;;;14.27;9.90;;;6.30;82.40;;;;;;5021888;28;20572;-75
2021/11/28 12:47:20;;;;;;;17.20;10.60;;;6.30;82.50;;;;;;5023601;28;20534;-73
2021/11/28 12:50:17;;;;;;;44.47;18.63;;;6.40;82.80;;;;;;5023103;28;20424;-75
2021/11/28 12:52:45;;;;;;;23.43;12.30;;;6.50;82.20;;;;;;5023570;28;20465;-76
2021/11/28 12:55:13;;;;;;;21.57;11.23;;;6.60;81.50;;;;;;5016694;28;20664;-73
2021/11/28 12:57:58;;;;;;;23.70;13.53;;;6.60;81.40;;;;;;5019744;28;20437;-74
2021/11/28 13:00:24;;;;;;;26.50;13.60;;;6.60;81.20;;;;;;4999428;28;20430;-73
2021/11/28 13:03:10;;;;;;;20.73;13.17;;;6.60;80.10;;;;;;5001172;28;20414;-74
2021/11/28 13:05:46;;;;;;;28.67;13.00;;;6.50;79.40;;;;;;5018734;28;20517;-74
2021/11/28 13:08:12;;;;;;;28.33;14.63;;;6.40;79.50;;;;;;5021038;28;20479;-74
2021/11/28 13:10:38;;;;;;;26.77;14.70;;;6.40;79.70;;;;;;5022037;28;20410;-75
2021/11/28 13:13:17;;;;;;;23.60;14.30;;;6.40;80.40;;;;;;5007627;28;20792;-75
2021/11/28 13:15:50;;;;;;;26.03;15.77;;;6.40;80.50;;;;;;4998020;28;20187;-75